KPEX

Details ICAO KPEX
Name PAYNESVILLE MUNI
Region United States
Timezone America/Chicago (UTC-6.0)
Plans Departing 1
Arriving 1
Stats Elevation 1,180 ft / 360 m (AMSL)
Location 45.369478° -94.740102°
Runways 2
Magnetic Variation 1.378° E
Sunrise 2017-12-11 13:50:09 UTC / 2017-12-11 07:50:09 Local
Sunset 2017-12-11 22:37:26 UTC / 2017-12-11 16:37:26 Local
Advertisement - Login to hide

Runways

ID Width Length Bearing (true) Bearing (mag) Surface Threshold Offset Overrun Length
11 75 ft / 23 m 3,303 ft / 1,007 m 112.50° 111.12° Asphalt 0 ft / 0 m 0 ft / 0 m
14 145 ft / 44 m 2,319 ft / 707 m 142.23° 140.85° Dirt 0 ft / 0 m 0 ft / 0 m
29 75 ft / 23 m 3,303 ft / 1,007 m 292.51° 291.13° Asphalt 0 ft / 0 m 0 ft / 0 m
32 145 ft / 44 m 2,319 ft / 707 m 322.24° 320.86° Dirt 0 ft / 0 m 0 ft / 0 m

Map

Weather


0- 5 10 15 20 25 30 35+ Temperature / ° C

Clouds and Precipitation
Forecast for 2017-12-11 18:00 UTC. Updated 31 minutes ago

Ground ~20,000 ft ~40,000 ft Winds

METAR

KPEX 111735Z AUTO 33016G25KT 10SM OVC018 02/00 A2987 RMK AO2 T00171005

TAF

Not found

Frequencies

Recorded 120.35 MHz AWOS 3
Unicom 122.90 MHz CTAF
Warning: Do not use this data for real-world aviation or navigation. No guarantee of current accuracy is given.